Time;durP1;ratioP1;P1;durP2;ratioP2;P2;SDS_P1;SDS_P2;PMS_P1;PMS_P2;Temp;Humidity;BMP_temperature;BMP_pressure;BME280_temperature;BME280_humidity;BME280_pressure;Samples;Min_cycle;Max_cycle;Signal;HPM_P1;HPM_P2
2022/04/14 00:02:03;;;;;;;3.72;0.82;;;21.00;99.90;;;;;;5074459;28;20181;-71
2022/04/14 00:04:35;;;;;;;5.85;0.88;;;21.00;99.90;;;;;;5073762;28;20617;-77
2022/04/14 00:07:07;;;;;;;5.00;1.05;;;21.10;99.90;;;;;;5073264;28;20254;-87
2022/04/14 00:09:37;;;;;;;2.65;0.90;;;21.20;99.90;;;;;;5074597;28;20197;-71
2022/04/14 00:12:11;;;;;;;4.07;0.88;;;21.30;99.90;;;;;;5071593;28;20423;-72
2022/04/14 00:14:42;;;;;;;2.60;0.80;;;21.30;99.90;;;;;;5070066;28;20204;-74
2022/04/14 00:17:13;;;;;;;2.65;0.70;;;21.40;99.90;;;;;;5072552;28;20204;-71
2022/04/14 00:19:44;;;;;;;3.92;0.90;;;21.50;99.90;;;;;;5075070;28;20221;-71
2022/04/14 00:22:14;;;;;;;1.60;0.60;;;21.30;99.90;;;;;;5067111;28;20254;-73
2022/04/14 00:24:45;;;;;;;3.60;0.70;;;21.10;99.90;;;;;;5074487;28;20307;-69
2022/04/14 00:27:20;;;;;;;2.90;0.80;;;21.00;99.90;;;;;;5068127;28;20189;-69
2022/04/14 00:29:51;;;;;;;2.53;0.50;;;20.90;99.90;;;;;;5072148;28;20234;-69
2022/04/14 00:32:22;;;;;;;3.00;0.70;;;20.70;99.90;;;;;;5072344;28;20185;-71
2022/04/14 00:34:52;;;;;;;2.88;1.13;;;20.80;99.90;;;;;;5072586;28;20686;-70
2022/04/14 00:37:23;;;;;;;2.10;0.63;;;21.00;99.90;;;;;;5073684;28;20211;-76
2022/04/14 00:39:54;;;;;;;2.13;0.70;;;21.00;99.90;;;;;;5073523;28;20189;-70
2022/04/14 00:42:26;;;;;;;3.33;0.80;;;21.00;99.90;;;;;;5071765;28;20266;-71
2022/04/14 00:44:57;;;;;;;1.08;0.50;;;21.10;99.90;;;;;;5074092;28;20193;-71
2022/04/14 00:47:27;;;;;;;1.63;0.70;;;21.10;99.90;;;;;;5073479;28;20200;-71
2022/04/14 00:49:58;;;;;;;2.17;0.40;;;21.10;99.90;;;;;;5067108;28;20217;-71
2022/04/14 00:52:29;;;;;;;2.70;0.50;;;21.00;99.90;;;;;;5070844;28;20223;-71
2022/04/14 00:55:00;;;;;;;3.88;0.60;;;21.00;99.90;;;;;;5072938;28;20185;-71
2022/04/14 00:57:32;;;;;;;2.75;0.77;;;21.00;99.90;;;;;;5069260;28;20213;-71
2022/04/14 01:00:03;;;;;;;3.25;0.50;;;20.90;99.90;;;;;;5072333;28;20196;-71
2022/04/14 01:02:35;;;;;;;2.92;0.70;;;20.80;99.90;;;;;;5067218;28;20229;-71
2022/04/14 01:05:07;;;;;;;3.08;0.70;;;20.80;99.90;;;;;;5071450;28;20181;-72
2022/04/14 01:07:38;;;;;;;3.53;0.73;;;20.80;99.90;;;;;;5072424;28;20193;-76
2022/04/14 01:10:09;;;;;;;1.67;0.55;;;21.00;99.90;;;;;;5070599;28;20239;-80
2022/04/14 01:12:42;;;;;;;4.32;0.75;;;21.20;99.90;;;;;;5071475;28;20193;-72
2022/04/14 01:15:15;;;;;;;2.45;0.68;;;21.30;99.90;;;;;;5070129;28;20242;-71
2022/04/14 01:17:46;;;;;;;3.17;0.60;;;21.10;99.90;;;;;;5070051;28;20212;-72
2022/04/14 01:20:18;;;;;;;2.65;0.60;;;21.00;99.90;;;;;;5073205;28;20215;-81
2022/04/14 01:22:56;;;;;;;2.38;0.70;;;20.80;99.90;;;;;;5071891;28;20199;-82
2022/04/14 01:25:30;;;;;;;1.67;0.60;;;20.70;99.90;;;;;;5069544;28;20189;-80
2022/04/14 01:28:00;;;;;;;4.78;1.05;;;20.60;99.90;;;;;;5069035;28;20212;-71
2022/04/14 01:30:31;;;;;;;4.63;0.80;;;20.50;99.90;;;;;;5069846;28;20330;-72
2022/04/14 01:33:02;;;;;;;5.68;0.95;;;20.40;99.90;;;;;;5067066;28;20194;-72
2022/04/14 01:35:33;;;;;;;1.85;0.43;;;20.30;99.90;;;;;;5070651;28;20188;-71
2022/04/14 01:38:03;;;;;;;2.25;0.40;;;20.20;99.90;;;;;;5065569;28;20209;-71
2022/04/14 01:40:36;;;;;;;1.05;0.50;;;20.10;99.90;;;;;;5066734;28;20185;-71
2022/04/14 01:43:06;;;;;;;4.63;0.73;;;20.20;99.90;;;;;;5068427;28;20671;-71
2022/04/14 01:45:37;;;;;;;2.45;0.70;;;20.20;99.90;;;;;;5070451;28;20668;-70
2022/04/14 01:48:08;;;;;;;3.58;0.80;;;20.20;99.90;;;;;;5071731;28;20647;-71
2022/04/14 01:50:38;;;;;;;3.03;0.80;;;20.40;99.90;;;;;;5063632;28;20350;-71
2022/04/14 01:53:09;;;;;;;2.47;0.80;;;20.70;99.90;;;;;;5062966;28;20286;-71
2022/04/14 01:55:42;;;;;;;3.30;0.80;;;21.10;99.90;;;;;;5071819;28;20182;-71
2022/04/14 01:58:12;;;;;;;1.60;0.75;;;21.40;99.90;;;;;;5069890;28;20266;-74
2022/04/14 02:00:43;;;;;;;1.38;0.60;;;21.70;99.90;;;;;;5069282;28;20185;-71
2022/04/14 02:03:14;;;;;;;4.72;1.70;;;21.90;99.90;;;;;;5067358;28;20192;-72
2022/04/14 02:05:44;;;;;;;2.50;0.90;;;21.90;99.90;;;;;;5067138;28;20185;-71
2022/04/14 02:08:15;;;;;;;4.18;0.98;;;21.90;99.90;;;;;;5071468;28;20185;-72
2022/04/14 02:10:48;;;;;;;2.70;0.75;;;21.80;99.90;;;;;;5069311;28;20185;-72
2022/04/14 02:13:18;;;;;;;2.95;0.68;;;21.70;99.90;;;;;;5070364;28;20193;-72
2022/04/14 02:15:49;;;;;;;2.03;0.68;;;21.60;99.90;;;;;;5069311;28;20186;-71
2022/04/14 02:18:20;;;;;;;2.22;0.60;;;21.50;99.90;;;;;;5067509;28;20205;-72
2022/04/14 02:20:50;;;;;;;4.57;0.70;;;21.50;99.90;;;;;;5071570;28;20196;-71
2022/04/14 02:23:21;;;;;;;1.90;0.75;;;21.50;99.90;;;;;;5068045;28;20250;-72
2022/04/14 02:25:54;;;;;;;6.40;1.00;;;21.40;99.90;;;;;;5071047;28;20255;-72
2022/04/14 02:28:25;;;;;;;2.47;0.60;;;21.40;99.90;;;;;;5072648;28;20181;-71
2022/04/14 02:30:55;;;;;;;3.72;0.90;;;21.30;99.90;;;;;;5071355;28;20204;-71
2022/04/14 02:33:26;;;;;;;4.10;0.88;;;21.30;99.90;;;;;;5067106;28;20186;-71
2022/04/14 02:35:56;;;;;;;5.13;0.80;;;21.20;99.90;;;;;;5069414;28;20243;-73
2022/04/14 02:38:27;;;;;;;3.13;0.90;;;21.00;99.90;;;;;;5058234;28;20684;-71
2022/04/14 02:40:59;;;;;;;3.20;0.73;;;21.00;99.90;;;;;;5067560;28;20189;-72
2022/04/14 02:43:30;;;;;;;2.65;0.57;;;20.90;99.90;;;;;;5070853;28;20185;-72
2022/04/14 02:46:00;;;;;;;2.17;0.60;;;20.80;99.90;;;;;;5066753;28;20201;-72
2022/04/14 02:48:31;;;;;;;2.65;0.50;;;20.80;99.90;;;;;;5069225;28;20197;-72
2022/04/14 02:51:02;;;;;;;2.20;0.43;;;20.70;99.90;;;;;;5070134;28;20185;-71
2022/04/14 02:53:35;;;;;;;2.80;0.68;;;20.70;99.90;;;;;;5062301;28;20693;-71
2022/04/14 02:56:09;;;;;;;2.92;0.60;;;20.70;99.90;;;;;;5061175;28;20199;-72
2022/04/14 02:58:40;;;;;;;2.50;0.70;;;20.60;99.90;;;;;;5069507;28;20304;-71
2022/04/14 03:01:10;;;;;;;0.73;0.50;;;20.60;99.90;;;;;;5067824;28;20330;-71
2022/04/14 03:03:41;;;;;;;1.90;0.55;;;20.60;99.90;;;;;;5062270;28;20189;-72
2022/04/14 03:06:12;;;;;;;2.20;0.50;;;20.60;99.90;;;;;;5064290;28;20221;-72
2022/04/14 03:08:50;;;;;;;2.92;0.70;;;20.70;99.90;;;;;;5070851;28;20553;-72
2022/04/14 03:11:23;;;;;;;2.75;0.50;;;20.70;99.90;;;;;;5066386;28;20197;-74
2022/04/14 03:13:53;;;;;;;4.75;0.80;;;20.70;99.90;;;;;;5071703;28;20201;-71
2022/04/14 03:16:24;;;;;;;2.03;0.60;;;20.80;99.90;;;;;;5067364;28;20604;-73
2022/04/14 03:18:54;;;;;;;2.78;0.60;;;21.00;99.90;;;;;;5069595;28;20220;-74
2022/04/14 03:21:25;;;;;;;6.00;0.80;;;21.30;99.90;;;;;;5060259;28;20606;-79
2022/04/14 03:23:55;;;;;;;1.63;0.50;;;21.50;99.90;;;;;;5068579;28;20193;-73
2022/04/14 03:26:28;;;;;;;0.90;0.32;;;21.90;99.90;;;;;;5056764;28;20632;-73
2022/04/14 03:28:59;;;;;;;0.73;0.35;;;22.30;99.90;;;;;;5072329;28;20196;-74
2022/04/14 03:31:30;;;;;;;1.90;0.47;;;22.50;99.90;;;;;;5073452;28;20212;-72
2022/04/14 03:34:01;;;;;;;2.00;0.65;;;22.60;99.90;;;;;;5073172;28;20217;-71
2022/04/14 03:36:31;;;;;;;1.67;0.40;;;22.60;99.90;;;;;;5072350;28;20185;-72
2022/04/14 03:39:02;;;;;;;2.75;0.40;;;22.60;99.90;;;;;;5073023;28;20240;-71
2022/04/14 03:41:34;;;;;;;1.35;0.30;;;22.70;99.90;;;;;;5070577;28;20644;-72
2022/04/14 03:44:05;;;;;;;1.95;0.30;;;22.60;99.90;;;;;;5071066;28;20243;-71
2022/04/14 03:46:36;;;;;;;2.88;0.45;;;22.40;99.90;;;;;;5073077;28;20197;-72
2022/04/14 03:49:06;;;;;;;2.25;0.50;;;22.40;99.90;;;;;;5066292;28;20757;-72
2022/04/14 03:51:37;;;;;;;1.90;0.65;;;22.30;99.90;;;;;;5067688;28;20652;-74
2022/04/14 03:54:08;;;;;;;2.40;0.40;;;22.20;99.90;;;;;;5071638;28;20721;-71
2022/04/14 03:56:40;;;;;;;2.20;0.50;;;22.10;99.90;;;;;;5069060;28;20204;-72
2022/04/14 03:59:13;;;;;;;1.45;0.35;;;22.00;99.90;;;;;;5071814;28;20256;-71
2022/04/14 04:01:44;;;;;;;1.83;0.50;;;22.00;99.90;;;;;;5072116;28;20250;-72
2022/04/14 04:04:14;;;;;;;2.05;0.30;;;22.10;99.90;;;;;;5067685;28;20192;-72
2022/04/14 04:06:45;;;;;;;2.25;0.40;;;22.00;99.90;;;;;;5070086;28;20239;-72
2022/04/14 04:09:16;;;;;;;2.03;0.40;;;22.00;99.90;;;;;;5068933;28;20527;-76
2022/04/14 04:11:48;;;;;;;4.30;0.50;;;22.00;99.90;;;;;;5066227;28;20664;-76
2022/04/14 04:14:19;;;;;;;2.40;0.60;;;21.90;99.90;;;;;;5071142;28;20693;-75
2022/04/14 04:16:50;;;;;;;2.55;0.40;;;21.80;99.90;;;;;;5073340;28;20189;-83
2022/04/14 04:19:20;;;;;;;0.70;0.30;;;21.70;99.90;;;;;;5066433;28;20217;-71
2022/04/14 04:21:51;;;;;;;2.67;0.45;;;21.60;99.90;;;;;;5069831;28;20181;-72
2022/04/14 04:24:21;;;;;;;1.10;0.40;;;21.50;99.90;;;;;;5073158;28;20188;-73
2022/04/14 04:26:55;;;;;;;1.00;0.30;;;21.50;99.90;;;;;;5069723;28;20189;-72
2022/04/14 04:29:25;;;;;;;1.52;0.30;;;21.50;99.90;;;;;;5067055;28;20703;-71
2022/04/14 04:31:56;;;;;;;1.48;0.40;;;21.50;99.90;;;;;;5060292;28;20263;-71
2022/04/14 04:34:26;;;;;;;0.65;0.25;;;21.80;99.90;;;;;;5064514;28;20192;-72
2022/04/14 04:36:57;;;;;;;1.17;0.30;;;22.00;99.90;;;;;;5074693;28;20185;-72
2022/04/14 04:39:28;;;;;;;1.73;0.52;;;22.20;99.90;;;;;;5072540;28;20209;-74
2022/04/14 04:42:00;;;;;;;1.67;0.47;;;22.40;99.90;;;;;;5074516;28;20189;-73
2022/04/14 04:44:33;;;;;;;3.72;0.32;;;22.40;99.90;;;;;;5072475;28;20200;-73
2022/04/14 04:47:03;;;;;;;1.20;0.30;;;22.50;99.90;;;;;;5073607;28;20185;-72
2022/04/14 04:49:34;;;;;;;2.15;0.40;;;22.50;99.90;;;;;;5071318;28;20221;-72
2022/04/14 04:52:05;;;;;;;1.95;0.40;;;22.60;99.90;;;;;;5072490;28;20204;-72
2022/04/14 04:54:35;;;;;;;1.48;0.50;;;22.60;99.90;;;;;;5073727;28;20262;-71
2022/04/14 04:57:08;;;;;;;1.58;0.30;;;22.50;99.90;;;;;;5073351;28;20181;-73
2022/04/14 04:59:39;;;;;;;4.70;0.40;;;22.50;99.90;;;;;;5072637;28;20216;-71
2022/04/14 05:02:10;;;;;;;1.30;0.40;;;22.50;99.90;;;;;;5073253;28;20192;-72
2022/04/14 05:04:40;;;;;;;2.70;0.30;;;22.50;99.90;;;;;;5073047;28;20280;-80
2022/04/14 05:07:11;;;;;;;0.40;0.30;;;22.50;99.90;;;;;;5072697;28;20189;-72
2022/04/14 05:09:42;;;;;;;2.10;0.40;;;22.50;99.90;;;;;;5072451;28;20197;-72
2022/04/14 05:12:15;;;;;;;0.52;0.30;;;22.50;99.90;;;;;;5073337;28;20189;-73
2022/04/14 05:14:45;;;;;;;4.25;0.40;;;22.50;99.90;;;;;;5072915;28;20235;-72
2022/04/14 05:17:16;;;;;;;1.58;0.25;;;22.50;99.90;;;;;;5072990;28;20193;-72
2022/04/14 05:19:46;;;;;;;3.85;0.65;;;22.40;99.90;;;;;;5072350;28;20217;-72
2022/04/14 05:22:17;;;;;;;6.93;0.43;;;22.40;99.90;;;;;;5072756;28;20246;-75
2022/04/14 05:24:48;;;;;;;0.68;0.20;;;22.40;99.90;;;;;;5072575;28;20243;-79
2022/04/14 05:27:20;;;;;;;1.50;0.40;;;22.40;99.90;;;;;;5073220;28;20188;-72
2022/04/14 05:29:50;;;;;;;2.50;0.30;;;22.40;99.90;;;;;;5072809;28;20278;-72
2022/04/14 05:32:21;;;;;;;2.60;0.35;;;22.40;99.90;;;;;;5072927;28;20246;-80
2022/04/14 05:34:52;;;;;;;1.00;0.20;;;22.40;99.90;;;;;;5062480;28;20197;-72
2022/04/14 05:37:22;;;;;;;1.17;0.20;;;22.40;99.90;;;;;;5068287;28;20204;-73
2022/04/14 05:39:53;;;;;;;0.95;0.20;;;22.40;99.90;;;;;;5072359;28;20733;-71
2022/04/14 05:42:25;;;;;;;2.92;0.35;;;22.30;99.90;;;;;;5073326;28;20246;-72
2022/04/14 05:44:56;;;;;;;0.77;0.10;;;22.30;99.90;;;;;;5072923;28;20189;-72
2022/04/14 05:47:27;;;;;;;3.35;0.40;;;22.20;99.90;;;;;;5072988;28;20185;-72
2022/04/14 05:49:58;;;;;;;3.28;0.30;;;22.20;99.90;;;;;;5069103;28;20228;-71
2022/04/14 05:52:28;;;;;;;0.90;0.32;;;22.20;99.90;;;;;;5072685;28;20189;-71
2022/04/14 05:55:01;;;;;;;2.85;0.20;;;22.20;99.90;;;;;;5073468;28;20204;-72
2022/04/14 05:57:34;;;;;;;2.13;0.30;;;22.10;99.90;;;;;;5072671;28;21038;-72
2022/04/14 06:00:06;;;;;;;2.38;0.40;;;22.10;99.90;;;;;;5072773;28;20227;-71
2022/04/14 06:02:36;;;;;;;1.23;0.40;;;22.00;99.90;;;;;;5072907;28;20238;-72
2022/04/14 06:05:08;;;;;;;3.25;0.28;;;22.10;99.90;;;;;;5073135;28;20597;-72
2022/04/14 06:07:38;;;;;;;0.95;0.28;;;22.00;99.90;;;;;;5072649;28;20193;-73
2022/04/14 06:10:09;;;;;;;1.15;0.30;;;22.00;99.90;;;;;;5072920;28;20532;-73
2022/04/14 06:12:42;;;;;;;3.53;0.32;;;22.00;99.90;;;;;;5071976;28;20190;-72
2022/04/14 06:15:13;;;;;;;1.50;0.40;;;22.00;99.90;;;;;;5071700;28;20185;-71
2022/04/14 06:17:44;;;;;;;1.15;0.30;;;21.90;99.90;;;;;;5072473;28;20192;-72
2022/04/14 06:20:15;;;;;;;2.40;0.30;;;21.90;99.90;;;;;;5072509;28;20303;-71
2022/04/14 06:22:46;;;;;;;1.00;0.30;;;21.90;99.90;;;;;;5072561;28;20246;-70
2022/04/14 06:25:22;;;;;;;0.50;0.30;;;21.90;99.90;;;;;;5072802;28;20193;-71
2022/04/14 06:27:55;;;;;;;2.20;0.43;;;21.80;99.90;;;;;;5071642;28;20185;-70
2022/04/14 06:30:26;;;;;;;3.25;0.63;;;21.80;99.90;;;;;;5072340;28;20200;-71
2022/04/14 06:33:02;;;;;;;1.25;0.60;;;21.70;99.90;;;;;;5064620;28;20189;-71
2022/04/14 06:35:33;;;;;;;0.95;0.40;;;21.60;99.90;;;;;;5070861;28;20193;-71
2022/04/14 06:38:03;;;;;;;1.08;0.30;;;21.60;99.90;;;;;;5070677;28;20193;-71
2022/04/14 06:40:35;;;;;;;2.45;0.40;;;21.50;99.90;;;;;;5072162;28;20563;-71
2022/04/14 06:43:10;;;;;;;2.50;0.25;;;21.50;99.90;;;;;;5070146;28;20264;-71
2022/04/14 06:45:40;;;;;;;2.13;0.30;;;21.50;99.90;;;;;;5071293;28;20196;-71
2022/04/14 06:48:11;;;;;;;2.72;0.40;;;21.40;99.90;;;;;;5071872;28;20197;-73
2022/04/14 06:50:42;;;;;;;2.40;0.40;;;21.40;99.90;;;;;;5070488;28;20256;-73
2022/04/14 06:53:12;;;;;;;1.50;0.30;;;21.40;99.90;;;;;;5067766;28;20307;-71
2022/04/14 06:55:47;;;;;;;0.70;0.30;;;21.30;99.90;;;;;;5072497;28;20197;-71
2022/04/14 06:58:20;;;;;;;2.88;0.40;;;21.30;99.90;;;;;;5063580;28;20199;-71
2022/04/14 07:00:50;;;;;;;0.70;0.28;;;21.30;99.90;;;;;;5071722;28;20197;-71
2022/04/14 07:03:26;;;;;;;0.60;0.10;;;21.20;99.90;;;;;;5074636;28;20246;-72
2022/04/14 07:05:57;;;;;;;2.85;0.30;;;21.20;99.90;;;;;;5075322;28;20196;-74
2022/04/14 07:08:27;;;;;;;0.95;0.52;;;21.10;99.90;;;;;;5076333;28;20193;-70
2022/04/14 07:10:59;;;;;;;3.70;0.50;;;21.20;99.90;;;;;;5075144;28;20624;-72
2022/04/14 07:13:31;;;;;;;3.50;0.45;;;21.10;99.90;;;;;;5075101;28;20284;-71
2022/04/14 07:16:02;;;;;;;1.98;0.30;;;21.10;99.90;;;;;;5075424;28;20239;-71
2022/04/14 07:18:33;;;;;;;2.13;0.40;;;21.10;99.90;;;;;;5074611;28;20220;-71
2022/04/14 07:21:05;;;;;;;3.22;0.45;;;21.00;99.90;;;;;;5075614;28;20632;-71
2022/04/14 07:23:36;;;;;;;0.88;0.20;;;20.90;99.90;;;;;;5075801;28;20185;-71
2022/04/14 07:26:06;;;;;;;0.88;0.30;;;20.90;99.90;;;;;;5074664;28;20204;-71
2022/04/14 07:28:39;;;;;;;1.98;0.45;;;20.90;99.90;;;;;;5068947;28;20696;-72
2022/04/14 07:31:10;;;;;;;2.40;0.50;;;20.80;99.90;;;;;;5075554;28;20193;-74
2022/04/14 07:33:41;;;;;;;1.80;0.50;;;20.80;99.90;;;;;;5074683;28;20637;-71
2022/04/14 07:36:14;;;;;;;1.15;0.50;;;20.70;99.90;;;;;;5074385;28;20204;-72
2022/04/14 07:38:45;;;;;;;1.73;0.70;;;20.70;99.90;;;;;;5075020;28;20263;-71
2022/04/14 07:41:16;;;;;;;3.13;0.70;;;20.60;99.90;;;;;;5074668;28;20258;-71
2022/04/14 07:43:48;;;;;;;1.10;0.60;;;20.50;99.90;;;;;;5075436;28;20185;-73
2022/04/14 07:46:19;;;;;;;2.70;0.68;;;20.50;99.90;;;;;;5074359;28;20193;-72
2022/04/14 07:48:50;;;;;;;2.67;0.80;;;20.40;99.90;;;;;;5073199;28;20224;-77
2022/04/14 07:51:21;;;;;;;1.25;0.90;;;20.40;99.90;;;;;;5074989;28;20197;-72
2022/04/14 07:53:53;;;;;;;1.85;0.88;;;20.30;99.90;;;;;;5074242;28;20228;-71
2022/04/14 07:56:24;;;;;;;1.83;0.70;;;20.20;99.90;;;;;;5074927;28;20234;-71
2022/04/14 07:58:56;;;;;;;1.30;0.70;;;20.20;99.90;;;;;;5074779;28;20216;-71
2022/04/14 08:01:27;;;;;;;3.50;0.90;;;20.10;99.90;;;;;;5074961;28;20193;-71
2022/04/14 08:03:57;;;;;;;3.95;1.67;;;20.10;99.90;;;;;;5074100;28;20185;-72
2022/04/14 08:06:29;;;;;;;3.70;1.48;;;20.00;99.90;;;;;;5073698;28;20193;-71
2022/04/14 08:09:00;;;;;;;3.72;1.50;;;19.90;99.90;;;;;;5073457;28;20193;-72
2022/04/14 08:11:30;;;;;;;2.58;1.63;;;19.80;99.90;;;;;;5071873;28;20702;-71
2022/04/14 08:14:03;;;;;;;3.17;1.45;;;19.80;99.90;;;;;;5072577;28;20188;-71
2022/04/14 08:16:34;;;;;;;3.42;1.45;;;19.70;99.90;;;;;;5073684;28;20671;-71
2022/04/14 08:19:04;;;;;;;3.58;1.30;;;19.60;99.90;;;;;;5074149;28;20212;-71
2022/04/14 08:21:35;;;;;;;2.30;1.17;;;19.60;99.90;;;;;;5071925;28;20189;-71
2022/04/14 08:24:06;;;;;;;3.53;0.90;;;19.60;99.90;;;;;;5072019;28;20185;-72
2022/04/14 08:26:37;;;;;;;3.08;0.90;;;19.50;99.90;;;;;;5073400;28;20276;-71
2022/04/14 08:29:09;;;;;;;3.83;1.00;;;19.50;99.90;;;;;;5067493;28;20645;-71
2022/04/14 08:31:42;;;;;;;1.85;0.70;;;19.40;99.90;;;;;;5073177;28;20201;-73
2022/04/14 08:34:13;;;;;;;2.22;0.80;;;19.30;99.90;;;;;;5073911;28;20250;-72
2022/04/14 08:36:44;;;;;;;5.18;0.80;;;19.30;99.90;;;;;;5074047;28;20197;-72
2022/04/14 08:39:15;;;;;;;2.42;0.90;;;19.30;99.90;;;;;;5073901;28;20209;-71
2022/04/14 08:41:50;;;;;;;2.03;1.08;;;19.30;99.90;;;;;;5072822;28;20263;-72
2022/04/14 08:44:27;;;;;;;2.35;1.50;;;19.20;99.90;;;;;;5073586;28;20199;-71
2022/04/14 08:47:00;;;;;;;4.05;1.40;;;19.20;99.90;;;;;;5073998;28;20652;-72
2022/04/14 08:49:32;;;;;;;3.13;1.45;;;19.10;99.90;;;;;;5072362;28;20237;-71
2022/04/14 08:52:03;;;;;;;3.85;1.45;;;19.10;99.90;;;;;;5073737;28;20227;-71
2022/04/14 08:54:36;;;;;;;5.70;1.75;;;19.00;99.90;;;;;;5072515;28;20699;-71
2022/04/14 08:57:09;;;;;;;3.55;1.60;;;19.10;99.90;;;;;;5072708;28;20185;-72
2022/04/14 08:59:44;;;;;;;4.68;1.80;;;19.00;99.90;;;;;;5074127;28;20209;-71
2022/04/14 09:02:19;;;;;;;3.13;1.20;;;19.00;99.90;;;;;;5068469;28;20281;-72
2022/04/14 09:04:51;;;;;;;2.35;1.42;;;18.90;99.90;;;;;;5072824;28;20177;-71
2022/04/14 09:07:22;;;;;;;5.53;2.10;;;18.90;99.90;;;;;;5066887;28;20201;-71
2022/04/14 09:09:53;;;;;;;6.85;1.90;;;18.90;99.90;;;;;;5072820;28;20200;-71
2022/04/14 09:12:23;;;;;;;5.53;1.67;;;18.90;99.90;;;;;;5073172;28;20204;-72
2022/04/14 09:14:56;;;;;;;4.38;1.90;;;18.90;99.90;;;;;;5073623;28;20628;-71
2022/04/14 09:17:28;;;;;;;4.57;1.80;;;18.80;99.90;;;;;;5071986;28;20246;-71
2022/04/14 09:19:58;;;;;;;5.20;1.90;;;18.80;99.90;;;;;;5072509;28;20209;-71
2022/04/14 09:22:29;;;;;;;4.53;2.17;;;18.70;99.90;;;;;;5073332;28;20193;-72
2022/04/14 09:25:00;;;;;;;6.25;2.53;;;18.60;99.90;;;;;;5071792;28;20238;-72
2022/04/14 09:27:32;;;;;;;6.10;2.75;;;18.50;99.90;;;;;;5072792;28;20521;-72
2022/04/14 09:30:06;;;;;;;7.30;2.67;;;18.40;99.90;;;;;;5072149;28;20185;-73
2022/04/14 09:32:38;;;;;;;6.32;2.80;;;18.40;99.90;;;;;;5072460;28;20204;-81
2022/04/14 09:35:18;;;;;;;9.63;2.75;;;18.40;99.90;;;;;;5073220;28;20185;-71
2022/04/14 09:37:48;;;;;;;5.97;2.72;;;18.30;99.90;;;;;;5072759;28;20189;-71
2022/04/14 09:40:21;;;;;;;7.80;2.95;;;18.30;99.90;;;;;;5071893;28;20244;-71
2022/04/14 09:42:52;;;;;;;9.35;3.75;;;18.40;99.90;;;;;;5069449;28;20185;-71
2022/04/14 09:45:25;;;;;;;8.18;3.50;;;18.40;99.90;;;;;;5072261;28;20189;-71
2022/04/14 09:47:57;;;;;;;7.75;3.83;;;18.30;99.90;;;;;;5072290;28;20231;-71
2022/04/14 09:50:29;;;;;;;8.27;4.72;;;18.30;99.90;;;;;;5071131;28;20217;-72
2022/04/14 09:53:07;;;;;;;9.10;4.57;;;18.30;99.90;;;;;;5071751;28;20228;-71
2022/04/14 09:55:38;;;;;;;6.28;3.50;;;18.30;99.90;;;;;;5072835;28;20188;-71
2022/04/14 09:58:15;;;;;;;5.00;3.03;;;18.30;99.90;;;;;;5073083;28;20185;-71
2022/04/14 10:00:50;;;;;;;8.75;3.60;;;18.20;99.90;;;;;;5071757;28;20612;-73
2022/04/14 10:03:22;;;;;;;7.50;3.75;;;18.20;99.90;;;;;;5072545;28;20313;-72
2022/04/14 10:05:53;;;;;;;9.07;3.20;;;18.10;99.90;;;;;;5071971;28;20644;-71
2022/04/14 10:08:24;;;;;;;6.78;3.17;;;18.10;99.90;;;;;;5072706;28;20713;-71
2022/04/14 10:11:07;;;;;;;4.57;3.13;;;18.10;99.90;;;;;;5072657;28;20220;-71
2022/04/14 10:13:39;;;;;;;5.88;2.90;;;18.10;99.90;;;;;;5070992;28;20675;-72
2022/04/14 10:16:13;;;;;;;4.90;2.80;;;18.10;99.90;;;;;;5067308;28;20197;-71
2022/04/14 10:18:43;;;;;;;7.65;3.08;;;18.10;99.90;;;;;;5072609;28;20276;-71
2022/04/14 10:21:15;;;;;;;10.20;3.53;;;18.00;99.90;;;;;;5071847;28;20833;-71
2022/04/14 10:23:45;;;;;;;5.28;3.13;;;18.00;99.90;;;;;;5070595;28;20964;-71
2022/04/14 10:26:17;;;;;;;6.55;3.30;;;18.00;99.90;;;;;;5072228;28;20632;-71
2022/04/14 10:28:48;;;;;;;6.28;3.10;;;18.00;99.90;;;;;;5071965;28;20287;-71
2022/04/14 10:31:23;;;;;;;7.90;3.60;;;18.00;99.90;;;;;;5069951;28;20663;-71
2022/04/14 10:33:54;;;;;;;6.18;3.35;;;18.00;99.90;;;;;;5071780;28;20272;-71
2022/04/14 10:36:25;;;;;;;7.25;3.30;;;17.90;99.90;;;;;;5070261;28;20193;-73
2022/04/14 10:38:59;;;;;;;5.28;3.20;;;17.90;99.90;;;;;;5073387;28;20246;-71
2022/04/14 10:41:34;;;;;;;6.38;3.22;;;17.80;99.90;;;;;;5073194;28;20240;-71
2022/04/14 10:44:05;;;;;;;5.10;3.00;;;17.90;99.90;;;;;;5074586;28;20249;-73
2022/04/14 10:46:47;;;;;;;8.80;2.85;;;17.80;99.90;;;;;;5069939;28;20200;-71
2022/04/14 10:49:18;;;;;;;6.35;3.20;;;17.80;99.90;;;;;;5069696;28;20240;-71
2022/04/14 10:51:49;;;;;;;8.93;3.22;;;17.70;99.90;;;;;;5075239;28;20197;-71
2022/04/14 10:54:21;;;;;;;8.00;3.50;;;17.60;99.90;;;;;;5074030;28;20221;-76
2022/04/14 10:56:53;;;;;;;6.03;3.17;;;17.60;99.90;;;;;;5076522;28;20540;-71
2022/04/14 10:59:45;;;;;;;6.25;3.00;;;17.60;99.90;;;;;;5072698;28;20250;-71
2022/04/14 11:02:20;;;;;;;6.78;2.78;;;17.70;99.90;;;;;;5067723;28;20679;-71
2022/04/14 11:04:55;;;;;;;6.25;3.05;;;17.70;99.90;;;;;;5071792;28;20195;-71
2022/04/14 11:07:26;;;;;;;8.73;3.53;;;17.60;99.90;;;;;;5074367;28;20241;-71
2022/04/14 11:10:00;;;;;;;6.90;3.38;;;17.70;99.90;;;;;;5068345;28;20201;-71
2022/04/14 11:12:33;;;;;;;9.43;4.63;;;17.60;99.90;;;;;;5069971;28;20192;-72
2022/04/14 11:15:05;;;;;;;11.40;6.50;;;17.60;99.90;;;;;;5069852;28;20217;-71
2022/04/14 11:18:08;;;;;;;11.43;6.05;;;17.60;99.90;;;;;;5069868;28;20193;-71
2022/04/14 11:20:58;;;;;;;8.18;4.97;;;17.50;99.90;;;;;;5069349;28;20288;-71
2022/04/14 11:23:35;;;;;;;6.75;4.63;;;17.50;99.90;;;;;;5069432;28;20614;-71
2022/04/14 11:26:13;;;;;;;7.70;4.25;;;17.40;99.90;;;;;;5069733;28;20605;-71
2022/04/14 11:29:00;;;;;;;8.18;4.57;;;17.50;99.90;;;;;;5072607;28;20633;-73
2022/04/14 11:31:32;;;;;;;8.45;3.88;;;17.40;99.90;;;;;;5066711;28;20192;-72
2022/04/14 11:34:09;;;;;;;10.57;6.55;;;17.50;99.90;;;;;;5073203;28;20185;-71
2022/04/14 11:36:46;;;;;;;11.75;6.68;;;17.40;99.90;;;;;;5067454;28;20706;-73
2022/04/14 11:39:25;;;;;;;16.50;10.73;;;17.30;99.90;;;;;;5068545;28;20276;-71
2022/04/14 11:41:57;;;;;;;22.98;16.38;;;17.30;99.90;;;;;;5069824;28;20220;-71
2022/04/14 11:44:31;;;;;;;11.40;6.55;;;17.30;99.90;;;;;;5071159;28;20246;-72
2022/04/14 11:47:02;;;;;;;9.27;4.90;;;17.30;99.90;;;;;;5072042;28;20648;-71
2022/04/14 11:49:35;;;;;;;10.95;5.72;;;17.30;99.90;;;;;;5064812;28;20247;-72
2022/04/14 11:52:07;;;;;;;9.73;5.75;;;17.30;99.90;;;;;;5072886;28;20193;-72
2022/04/14 11:54:39;;;;;;;8.63;6.18;;;17.30;99.90;;;;;;5067460;28;20233;-72
2022/04/14 11:57:10;;;;;;;7.80;5.18;;;17.30;99.90;;;;;;5072881;28;20629;-71
2022/04/14 11:59:42;;;;;;;9.05;5.13;;;17.30;99.90;;;;;;5067577;28;20653;-71
2022/04/14 12:02:15;;;;;;;9.70;4.63;;;17.30;99.90;;;;;;5065573;28;20197;-71
2022/04/14 12:04:52;;;;;;;8.38;4.32;;;17.30;99.90;;;;;;5072282;28;20191;-71
2022/04/14 12:07:23;;;;;;;7.47;4.20;;;17.30;99.90;;;;;;5072292;28;20653;-80
2022/04/14 12:10:02;;;;;;;7.55;3.75;;;17.40;99.90;;;;;;5073928;28;20185;-71
2022/04/14 12:12:34;;;;;;;7.90;4.85;;;17.30;99.90;;;;;;5071393;28;20224;-72
2022/04/14 12:15:06;;;;;;;8.20;5.47;;;17.30;99.90;;;;;;5071996;28;20193;-71
2022/04/14 12:17:38;;;;;;;9.35;5.40;;;17.30;99.90;;;;;;5069338;28;20190;-73
2022/04/14 12:20:12;;;;;;;12.35;5.50;;;17.30;99.90;;;;;;5072784;28;20195;-71
2022/04/14 12:22:43;;;;;;;9.93;5.10;;;17.30;99.90;;;;;;5069974;28;20189;-72
2022/04/14 12:25:14;;;;;;;9.70;4.97;;;17.30;99.90;;;;;;5073770;28;20204;-71
2022/04/14 12:27:48;;;;;;;9.90;4.93;;;17.30;99.90;;;;;;5071613;28;20185;-74
2022/04/14 12:30:23;;;;;;;9.50;5.00;;;17.40;99.90;;;;;;5071146;28;20272;-71
2022/04/14 12:33:03;;;;;;;8.48;5.25;;;17.30;99.90;;;;;;5072185;28;20585;-71
2022/04/14 12:35:37;;;;;;;8.32;4.63;;;17.30;99.90;;;;;;5071178;28;20625;-72
2022/04/14 12:38:19;;;;;;;7.50;4.18;;;17.30;99.90;;;;;;5068519;28;20185;-72
2022/04/14 12:41:00;;;;;;;10.48;4.72;;;17.40;99.90;;;;;;5070743;28;20227;-72
2022/04/14 12:43:33;;;;;;;8.50;5.63;;;17.30;99.90;;;;;;5068242;28;20185;-71
2022/04/14 12:46:21;;;;;;;10.63;5.80;;;17.30;99.90;;;;;;5070872;28;20201;-71
2022/04/14 12:49:03;;;;;;;9.07;4.22;;;17.30;99.90;;;;;;5072287;28;20303;-71
2022/04/14 12:51:40;;;;;;;7.72;4.22;;;17.20;99.90;;;;;;5070782;28;20664;-72
2022/04/14 12:54:16;;;;;;;9.68;4.13;;;17.20;99.90;;;;;;5071209;28;20286;-71
2022/04/14 12:56:59;;;;;;;33.15;19.45;;;17.20;99.90;;;;;;5069740;28;20208;-71
2022/04/14 12:59:31;;;;;;;133.63;74.95;;;17.20;99.90;;;;;;5069686;28;20189;-71
2022/04/14 13:02:06;;;;;;;73.93;43.75;;;17.10;99.90;;;;;;5072923;28;20737;-71
2022/04/14 13:04:38;;;;;;;28.83;17.73;;;17.10;99.90;;;;;;5070701;28;20193;-73
2022/04/14 13:07:13;;;;;;;14.15;8.88;;;17.10;99.90;;;;;;5067187;28;20193;-72
2022/04/14 13:10:00;;;;;;;10.60;6.05;;;17.10;99.90;;;;;;5068202;28;20272;-72
2022/04/14 13:12:41;;;;;;;10.07;4.45;;;17.10;99.90;;;;;;5066999;28;20193;-71